createdAt,value
2022-12-01T00:01:18.563Z,21.75
2022-12-01T00:03:24.378Z,19.50
2022-12-01T00:05:29.463Z,20.38
2022-12-01T00:07:34.889Z,21.33
2022-12-01T00:09:52.363Z,20.95
2022-12-01T00:14:05.798Z,20.92
2022-12-01T00:16:15.045Z,23.80
2022-12-01T00:18:20.432Z,25.40
2022-12-01T00:20:25.528Z,20.95
2022-12-01T00:22:30.545Z,22.08
2022-12-01T00:24:36.489Z,23.42
2022-12-01T00:26:42.065Z,23.92
2022-12-01T00:28:50.975Z,23.67
2022-12-01T00:31:00.177Z,22.77
2022-12-01T00:33:05.446Z,21.02
2022-12-01T00:35:11.736Z,22.55
2022-12-01T00:37:17.408Z,23.83
2022-12-01T00:39:23.152Z,22.98
2022-12-01T00:41:29.634Z,26.98
2022-12-01T00:43:34.861Z,24.02
2022-12-01T00:45:40.199Z,28.83
2022-12-01T00:47:47.836Z,26.95
2022-12-01T00:49:53.495Z,24.50
2022-12-01T00:51:58.681Z,24.52
2022-12-01T00:54:03.973Z,22.80
2022-12-01T00:56:09.780Z,23.98
2022-12-01T00:58:15.523Z,24.75
2022-12-01T01:00:22.057Z,26.15
2022-12-01T01:02:27.454Z,27.20
2022-12-01T01:04:37.103Z,24.10
2022-12-01T01:06:43.350Z,28.42
2022-12-01T01:08:49.253Z,26.42
2022-12-01T01:10:54.230Z,30.13
2022-12-01T01:12:59.843Z,24.95
2022-12-01T01:15:05.838Z,24.48
2022-12-01T01:17:10.833Z,24.60
2022-12-01T01:19:15.862Z,26.30
2022-12-01T01:21:24.838Z,26.38
2022-12-01T01:23:30.477Z,24.05
2022-12-01T01:25:36.327Z,20.88
2022-12-01T01:27:41.430Z,24.75
2022-12-01T01:29:46.709Z,25.48
2022-12-01T01:31:52.357Z,23.92
2022-12-01T01:33:59.180Z,28.13
2022-12-01T01:36:05.424Z,25.08
2022-12-01T01:38:13.169Z,25.75
2022-12-01T01:40:18.353Z,23.30
2022-12-01T01:42:24.302Z,29.05
2022-12-01T01:44:52.695Z,24.63
2022-12-01T01:46:58.625Z,22.75
2022-12-01T01:49:06.483Z,24.13
2022-12-01T01:51:13.463Z,25.95
2022-12-01T01:53:21.248Z,24.80
2022-12-01T01:57:35.622Z,27.40
2022-12-01T01:59:45.951Z,25.48
2022-12-01T02:02:07.541Z,28.67
2022-12-01T02:04:13.044Z,26.88
2022-12-01T02:06:18.496Z,26.20
2022-12-01T02:08:26.157Z,28.40
2022-12-01T02:10:52.371Z,33.13
2022-12-01T02:13:11.346Z,30.65
2022-12-01T02:15:33.201Z,33.92
2022-12-01T02:17:47.989Z,36.13
2022-12-01T02:20:41.262Z,35.10
2022-12-01T02:23:04.566Z,31.25
2022-12-01T02:25:24.244Z,32.08
2022-12-01T02:27:52.014Z,28.73
2022-12-01T02:30:12.434Z,29.48
2022-12-01T02:32:32.949Z,27.52
2022-12-01T02:34:47.524Z,32.33
2022-12-01T02:36:57.709Z,27.98
2022-12-01T02:39:10.733Z,26.83
2022-12-01T02:41:23.137Z,24.15
2022-12-01T02:43:35.264Z,27.95
2022-12-01T02:45:46.710Z,27.27
2022-12-01T02:47:59.297Z,25.95
2022-12-01T02:50:06.029Z,26.63
2022-12-01T02:52:13.217Z,24.75
2022-12-01T02:54:18.713Z,28.42
2022-12-01T02:56:26.052Z,25.27
2022-12-01T02:58:31.531Z,28.98
2022-12-01T03:00:36.635Z,25.75
2022-12-01T03:02:51.956Z,29.13
2022-12-01T03:05:08.321Z,30.10
2022-12-01T03:07:43.704Z,26.77
2022-12-01T03:10:03.012Z,27.75
2022-12-01T03:12:23.501Z,27.08
2022-12-01T03:14:41.938Z,31.50
2022-12-01T03:16:54.438Z,30.02
2022-12-01T03:19:03.813Z,28.88
2022-12-01T03:21:17.321Z,27.17
2022-12-01T03:23:27.834Z,28.73
2022-12-01T03:25:34.726Z,27.38
2022-12-01T03:28:13.498Z,29.55
2022-12-01T03:30:12.948Z,29.23
2022-12-01T03:34:38.549Z,28.38
2022-12-01T03:36:52.812Z,26.88
2022-12-01T03:39:05.051Z,24.63
2022-12-01T03:41:17.970Z,23.85
2022-12-01T03:43:27.413Z,28.50
2022-12-01T03:45:39.093Z,29.88
2022-12-01T03:47:44.640Z,28.88
2022-12-01T03:49:52.862Z,29.90
2022-12-01T03:52:18.489Z,25.48
2022-12-01T03:54:33.300Z,27.27
2022-12-01T03:56:47.972Z,27.30
2022-12-01T03:58:58.017Z,26.38
2022-12-01T04:01:05.096Z,25.75
2022-12-01T04:03:10.368Z,27.85
2022-12-01T04:05:18.079Z,28.05
2022-12-01T04:07:28.842Z,30.38
2022-12-01T04:09:34.258Z,39.05
2022-12-01T04:12:03.964Z,29.55
2022-12-01T04:14:08.994Z,30.30
2022-12-01T04:16:14.033Z,29.50
2022-12-01T04:18:19.176Z,27.88
2022-12-01T04:20:25.994Z,32.15
2022-12-01T04:22:33.579Z,30.50
2022-12-01T04:24:39.103Z,29.95
2022-12-01T04:26:46.089Z,26.58
2022-12-01T04:28:51.651Z,29.43
2022-12-01T04:30:56.898Z,27.92
2022-12-01T04:33:01.977Z,28.83
2022-12-01T04:35:07.773Z,30.25
2022-12-01T04:37:13.017Z,29.75
2022-12-01T04:39:20.774Z,31.92
2022-12-01T04:41:26.047Z,28.25
2022-12-01T04:43:31.069Z,28.80
2022-12-01T04:45:36.096Z,30.58
2022-12-01T04:47:41.086Z,29.52
2022-12-01T04:49:46.326Z,29.80
2022-12-01T04:51:51.793Z,33.75
2022-12-01T04:53:56.852Z,29.25
2022-12-01T04:56:06.026Z,29.38
2022-12-01T04:58:11.079Z,33.40
2022-12-01T05:00:18.274Z,33.22
2022-12-01T05:02:23.434Z,30.42
2022-12-01T05:04:28.543Z,31.58
2022-12-01T05:06:33.690Z,33.38
2022-12-01T05:08:38.808Z,29.92
2022-12-01T05:10:43.805Z,35.30
2022-12-01T05:12:51.634Z,34.88
2022-12-01T05:14:56.656Z,35.47
2022-12-01T05:17:02.788Z,36.55
2022-12-01T05:19:21.645Z,32.28
2022-12-01T05:21:27.106Z,32.10
2022-12-01T05:23:34.442Z,35.10
2022-12-01T05:25:39.970Z,34.22
2022-12-01T05:27:45.247Z,34.58
2022-12-01T05:29:52.855Z,34.47
2022-12-01T05:31:57.927Z,36.00
2022-12-01T05:34:03.404Z,30.23
2022-12-01T05:36:09.570Z,31.80
2022-12-01T05:38:15.279Z,30.73
2022-12-01T05:40:20.571Z,32.05
2022-12-01T05:42:25.628Z,34.70
2022-12-01T05:44:30.957Z,34.15
2022-12-01T05:46:38.843Z,31.67
2022-12-01T05:48:45.391Z,28.27
2022-12-01T05:50:50.895Z,27.70
2022-12-01T05:52:56.275Z,28.25
2022-12-01T05:55:03.149Z,28.17
2022-12-01T05:57:08.269Z,29.80
2022-12-01T05:59:13.309Z,32.47
2022-12-01T06:01:18.520Z,27.40
2022-12-01T06:03:26.264Z,30.13
2022-12-01T06:05:31.722Z,32.05
2022-12-01T06:07:40.153Z,31.73
2022-12-01T06:09:46.635Z,28.63
2022-12-01T06:11:52.728Z,30.77
2022-12-01T06:13:57.896Z,29.90
2022-12-01T06:16:05.304Z,32.63
2022-12-01T06:18:10.374Z,32.30
2022-12-01T06:20:18.263Z,34.70
2022-12-01T06:24:28.629Z,31.77
2022-12-01T06:26:34.468Z,32.58
2022-12-01T06:28:39.594Z,33.17
2022-12-01T06:30:44.657Z,29.80
2022-12-01T06:32:50.195Z,32.75
2022-12-01T06:34:55.279Z,34.78
2022-12-01T06:37:02.856Z,30.35
2022-12-01T06:39:11.480Z,29.58
2022-12-01T06:41:16.592Z,31.30
2022-12-01T06:43:21.943Z,30.52
2022-12-01T06:45:27.051Z,36.60
2022-12-01T06:47:32.986Z,29.55
2022-12-01T06:49:38.311Z,29.83
2022-12-01T06:51:43.638Z,34.97
2022-12-01T06:53:51.224Z,31.73
2022-12-01T06:55:56.397Z,31.05
2022-12-01T06:58:03.200Z,31.85
2022-12-01T07:00:11.299Z,34.10
2022-12-01T07:02:17.567Z,31.67
2022-12-01T07:04:22.761Z,32.40
2022-12-01T07:06:32.010Z,32.97
2022-12-01T07:08:37.476Z,34.13
2022-12-01T07:10:45.031Z,28.20
2022-12-01T07:12:52.928Z,33.83
2022-12-01T07:17:05.441Z,33.00
2022-12-01T07:19:11.300Z,31.63
2022-12-01T07:21:19.774Z,31.40
2022-12-01T07:23:25.229Z,31.10
2022-12-01T07:25:30.399Z,34.35
2022-12-01T07:27:38.353Z,31.70
2022-12-01T07:31:48.190Z,33.42
2022-12-01T07:33:53.213Z,30.83
2022-12-01T07:35:58.656Z,45.10
2022-12-01T07:38:03.648Z,36.88
2022-12-01T07:40:11.043Z,31.55
2022-12-01T07:42:16.142Z,30.42
2022-12-01T07:44:24.038Z,32.83
2022-12-01T07:46:31.588Z,32.08
2022-12-01T07:48:37.491Z,31.27
2022-12-01T07:50:42.494Z,32.85
2022-12-01T07:52:47.509Z,29.88
2022-12-01T07:54:53.266Z,31.00
2022-12-01T07:57:00.973Z,30.60
2022-12-01T07:59:05.982Z,33.53
2022-12-01T08:01:16.798Z,28.42
2022-12-01T08:03:22.134Z,32.47
2022-12-01T08:05:27.297Z,31.05
2022-12-01T08:07:32.409Z,30.67
2022-12-01T08:09:37.389Z,28.10
2022-12-01T08:11:44.503Z,33.40
2022-12-01T08:13:50.127Z,29.20
2022-12-01T08:15:55.276Z,34.35
2022-12-01T08:18:06.194Z,28.38
2022-12-01T08:20:12.962Z,31.10
2022-12-01T08:22:18.006Z,29.83
2022-12-01T08:24:23.088Z,32.30
2022-12-01T08:26:29.694Z,32.47
2022-12-01T08:28:36.315Z,31.10
2022-12-01T08:30:41.443Z,30.33
2022-12-01T08:32:46.561Z,29.13
2022-12-01T08:34:54.268Z,27.30
2022-12-01T08:36:59.264Z,25.48
2022-12-01T08:39:04.829Z,30.83
2022-12-01T08:41:11.660Z,29.23
2022-12-01T08:43:34.682Z,29.95
2022-12-01T08:45:43.425Z,31.10
2022-12-01T08:47:48.433Z,26.77
2022-12-01T08:49:56.159Z,26.08
2022-12-01T08:52:01.137Z,28.63
2022-12-01T08:54:06.967Z,30.08
2022-12-01T08:56:16.370Z,28.08
2022-12-01T08:58:23.930Z,27.15
2022-12-01T09:00:31.727Z,28.75
2022-12-01T09:02:36.800Z,30.15
2022-12-01T09:04:41.861Z,30.52
2022-12-01T09:06:51.647Z,30.13
2022-12-01T09:08:57.006Z,28.13
2022-12-01T09:11:02.766Z,27.38
2022-12-01T09:13:08.542Z,31.52
2022-12-01T09:15:17.466Z,29.73
2022-12-01T09:17:26.525Z,30.23
2022-12-01T09:19:31.772Z,29.15
2022-12-01T09:21:39.492Z,33.83
2022-12-01T09:23:47.495Z,31.60
2022-12-01T09:25:53.515Z,28.90
2022-12-01T09:27:58.536Z,31.17
2022-12-01T09:30:03.569Z,33.00
2022-12-01T09:32:09.002Z,30.40
2022-12-01T09:34:18.566Z,27.98
2022-12-01T09:36:23.595Z,28.58
2022-12-01T09:38:29.219Z,29.48
2022-12-01T09:40:40.237Z,30.35
2022-12-01T09:42:48.518Z,31.15
2022-12-01T09:45:00.937Z,28.63
2022-12-01T09:47:19.105Z,27.30
2022-12-01T09:49:47.501Z,29.95
2022-12-01T09:51:54.576Z,28.65
2022-12-01T09:54:03.006Z,27.67
2022-12-01T09:56:23.737Z,28.88
2022-12-01T09:58:32.457Z,30.05
2022-12-01T10:00:43.752Z,35.45
2022-12-01T10:02:56.518Z,34.67
2022-12-01T10:05:06.539Z,31.80
2022-12-01T10:07:23.081Z,37.95
2022-12-01T10:09:37.695Z,36.00
2022-12-01T10:11:48.627Z,37.15
2022-12-01T10:13:54.351Z,38.20
2022-12-01T10:16:08.882Z,38.72
2022-12-01T10:18:33.944Z,41.78
2022-12-01T10:20:47.004Z,44.05
2022-12-01T10:23:16.044Z,40.67
2022-12-01T10:25:26.126Z,40.75
2022-12-01T10:27:49.175Z,40.30
2022-12-01T10:30:07.024Z,44.63
2022-12-01T10:32:21.700Z,44.35
2022-12-01T10:34:30.134Z,45.10
2022-12-01T10:36:37.056Z,49.20
2022-12-01T10:38:42.657Z,47.50
2022-12-01T10:40:50.762Z,48.35
2022-12-01T10:45:06.252Z,49.47
2022-12-01T10:47:23.474Z,50.08
2022-12-01T10:49:41.577Z,53.78
2022-12-01T10:51:57.058Z,56.95
2022-12-01T10:54:11.731Z,48.53
2022-12-01T10:56:21.135Z,59.50
2022-12-01T10:58:29.760Z,56.78
2022-12-01T11:00:59.185Z,56.75
2022-12-01T11:03:06.525Z,56.50
2022-12-01T11:05:28.218Z,50.20
2022-12-01T11:07:37.080Z,50.53
2022-12-01T11:09:43.456Z,51.38
2022-12-01T11:11:49.684Z,56.33
2022-12-01T11:13:57.786Z,56.65
2022-12-01T11:16:06.278Z,54.83
2022-12-01T11:18:26.273Z,54.45
2022-12-01T11:20:36.433Z,55.40
2022-12-01T11:22:41.675Z,56.00
2022-12-01T11:24:58.619Z,57.70
2022-12-01T11:27:04.264Z,58.63
2022-12-01T11:29:36.063Z,52.95
2022-12-01T11:31:49.311Z,56.20
2022-12-01T11:33:58.004Z,53.72
2022-12-01T11:36:03.265Z,56.72
2022-12-01T11:40:41.416Z,58.83
2022-12-01T11:42:55.536Z,62.42
2022-12-01T11:45:11.731Z,57.50
2022-12-01T11:47:23.550Z,56.92
2022-12-01T11:49:32.873Z,58.95
2022-12-01T11:51:39.844Z,61.78
2022-12-01T11:53:46.451Z,61.87
2022-12-01T11:55:54.812Z,64.57
2022-12-01T11:58:04.617Z,58.30
2022-12-01T12:00:21.374Z,63.75
2022-12-01T12:02:38.392Z,64.07
2022-12-01T12:05:09.652Z,67.95
2022-12-01T12:07:27.963Z,62.65
2022-12-01T12:10:03.349Z,66.70
2022-12-01T12:12:29.325Z,64.20
2022-12-01T12:14:58.846Z,64.03
2022-12-01T12:17:43.687Z,66.13
2022-12-01T12:20:26.200Z,68.72
2022-12-01T12:22:44.772Z,74.50
2022-12-01T12:25:05.796Z,71.88
2022-12-01T12:27:21.737Z,69.27
2022-12-01T12:29:46.170Z,71.57
2022-12-01T12:32:08.889Z,77.95
2022-12-01T12:34:45.132Z,74.82
2022-12-01T12:37:03.608Z,81.90
2022-12-01T12:39:29.389Z,77.22
2022-12-01T12:41:41.685Z,77.70
2022-12-01T12:44:06.388Z,85.70
2022-12-01T12:46:15.007Z,84.65
2022-12-01T12:48:45.683Z,81.20
2022-12-01T12:51:14.837Z,78.90
2022-12-01T12:53:25.575Z,87.07
2022-12-01T12:55:36.495Z,84.30
2022-12-01T12:57:50.660Z,84.43
2022-12-01T13:00:01.833Z,91.85
2022-12-01T13:02:17.534Z,84.25
2022-12-01T13:09:52.399Z,76.75
2022-12-01T13:12:07.359Z,76.93
2022-12-01T13:14:23.426Z,84.05
2022-12-01T13:16:36.347Z,80.82
2022-12-01T13:18:47.865Z,76.90
2022-12-01T13:20:57.090Z,77.72
2022-12-01T13:23:06.065Z,80.53
2022-12-01T13:25:15.535Z,80.43
2022-12-01T13:27:25.578Z,76.80
2022-12-01T13:29:43.722Z,75.53
2022-12-01T13:31:53.783Z,82.13
2022-12-01T13:34:06.652Z,77.35
2022-12-01T13:36:44.972Z,79.63
2022-12-01T13:38:42.944Z,80.13
2022-12-01T13:40:49.185Z,79.07
2022-12-01T13:43:08.913Z,75.20
2022-12-01T13:45:22.360Z,75.93
2022-12-01T13:47:42.280Z,80.70
2022-12-01T13:49:52.716Z,77.85
2022-12-01T13:52:33.907Z,84.55
2022-12-01T13:54:41.807Z,79.90
2022-12-01T14:00:07.043Z,82.05
2022-12-01T14:02:22.569Z,82.60
2022-12-01T14:04:31.864Z,78.68
2022-12-01T14:06:46.786Z,85.90
2022-12-01T14:08:52.877Z,83.28
2022-12-01T14:11:03.357Z,80.20
2022-12-01T14:13:10.624Z,83.13
2022-12-01T14:15:43.171Z,75.80
2022-12-01T14:17:48.682Z,79.68
2022-12-01T14:19:55.560Z,82.03
2022-12-01T14:22:00.648Z,80.70
2022-12-01T14:24:09.529Z,86.13
2022-12-01T14:29:43.187Z,82.07
2022-12-01T14:32:27.944Z,84.65
2022-12-01T14:34:35.142Z,78.45
2022-12-01T14:36:44.867Z,77.15
2022-12-01T14:38:51.099Z,78.43
2022-12-01T14:40:56.909Z,74.18
2022-12-01T14:43:16.489Z,80.07
2022-12-01T14:45:30.716Z,79.03
2022-12-01T14:47:45.192Z,72.20
2022-12-01T14:50:01.033Z,72.18
2022-12-01T14:52:09.966Z,76.07
2022-12-01T14:54:25.091Z,75.22
2022-12-01T14:56:31.209Z,70.47
2022-12-01T14:58:36.172Z,68.43
2022-12-01T15:01:06.168Z,72.70
2022-12-01T15:03:15.858Z,69.47
2022-12-01T15:05:23.872Z,72.20
2022-12-01T15:07:29.188Z,72.80
2022-12-01T15:09:35.249Z,78.55
2022-12-01T15:11:52.175Z,82.70
2022-12-01T15:14:00.040Z,78.75
2022-12-01T15:16:17.298Z,84.70
2022-12-01T15:18:29.461Z,78.63
2022-12-01T15:20:41.319Z,71.25
2022-12-01T15:22:50.175Z,70.47
2022-12-01T15:24:55.185Z,72.38
2022-12-01T15:27:03.964Z,73.60
2022-12-01T15:29:19.188Z,77.82
2022-12-01T15:31:26.948Z,76.80
2022-12-01T15:35:47.115Z,73.43
2022-12-01T15:37:53.599Z,71.68
2022-12-01T15:40:54.172Z,76.15
2022-12-01T15:42:33.495Z,68.22
2022-12-01T15:44:39.542Z,69.63
2022-12-01T15:46:47.140Z,77.97
2022-12-01T15:49:08.476Z,75.68
2022-12-01T15:51:18.972Z,73.47
2022-12-01T15:53:29.414Z,74.68
2022-12-01T15:55:37.481Z,71.65
2022-12-01T15:57:42.548Z,75.65
2022-12-01T15:59:53.947Z,76.03
2022-12-01T16:02:02.126Z,75.55
2022-12-01T16:04:16.998Z,68.85
2022-12-01T16:06:24.415Z,67.38
2022-12-01T16:08:31.028Z,74.97
2022-12-01T16:10:39.393Z,74.90
2022-12-01T16:12:44.422Z,74.60
2022-12-01T16:14:56.720Z,74.45
2022-12-01T16:17:06.061Z,73.45
2022-12-01T16:19:32.125Z,62.30
2022-12-01T16:21:47.008Z,68.22
2022-12-01T16:24:00.099Z,73.40
2022-12-01T16:26:11.434Z,68.95
2022-12-01T16:28:25.946Z,71.20
2022-12-01T16:30:38.370Z,67.10
2022-12-01T16:32:49.346Z,74.05
2022-12-01T16:34:55.871Z,79.20
2022-12-01T16:37:00.890Z,75.38
2022-12-01T16:39:09.561Z,78.47
2022-12-01T16:41:20.192Z,77.22
2022-12-01T16:43:28.060Z,79.97
2022-12-01T16:45:33.056Z,77.82
2022-12-01T16:47:38.052Z,74.10
2022-12-01T16:49:45.659Z,78.95
2022-12-01T16:51:56.469Z,81.97
2022-12-01T16:54:03.931Z,82.30
2022-12-01T16:56:14.943Z,78.22
2022-12-01T16:58:19.968Z,81.25
2022-12-01T17:00:25.836Z,76.82
2022-12-01T17:02:30.912Z,76.65
2022-12-01T17:04:35.831Z,90.25
2022-12-01T17:06:43.392Z,86.45
2022-12-01T17:08:48.970Z,82.03
2022-12-01T17:10:55.241Z,83.25
2022-12-01T17:13:01.081Z,77.65
2022-12-01T17:15:06.660Z,79.20
2022-12-01T17:17:11.946Z,72.80
2022-12-01T17:19:19.188Z,75.18
2022-12-01T17:21:24.668Z,77.93
2022-12-01T17:23:33.033Z,76.55
2022-12-01T17:25:42.593Z,72.50
2022-12-01T17:27:47.604Z,81.30
2022-12-01T17:29:52.681Z,86.45
2022-12-01T17:31:58.635Z,80.00
2022-12-01T17:34:03.625Z,86.10
2022-12-01T17:36:14.156Z,83.30
2022-12-01T17:38:19.824Z,83.68
2022-12-01T17:40:27.396Z,77.35
2022-12-01T17:42:34.037Z,79.78
2022-12-01T17:44:39.175Z,87.10
2022-12-01T17:46:44.631Z,86.00
2022-12-01T17:48:51.147Z,84.78
2022-12-01T17:50:56.147Z,84.57
2022-12-01T17:53:01.382Z,84.18
2022-12-01T17:55:07.124Z,88.82
2022-12-01T17:57:14.734Z,79.55
2022-12-01T17:59:20.071Z,91.20
2022-12-01T18:01:30.011Z,79.05
2022-12-01T18:03:35.697Z,84.15
2022-12-01T18:05:41.888Z,87.63
2022-12-01T18:07:46.934Z,82.32
2022-12-01T18:09:52.172Z,85.97
2022-12-01T18:11:58.328Z,75.47
2022-12-01T18:14:06.133Z,73.63
2022-12-01T18:16:12.790Z,74.65
2022-12-01T18:18:18.072Z,78.55
2022-12-01T18:20:24.319Z,75.20
2022-12-01T18:22:29.490Z,75.00
2022-12-01T18:24:34.503Z,74.97
2022-12-01T18:26:42.817Z,72.72
2022-12-01T18:28:48.091Z,68.22
2022-12-01T18:30:55.901Z,74.40
2022-12-01T18:33:00.959Z,79.28
2022-12-01T18:35:06.432Z,74.43
2022-12-01T18:37:11.740Z,71.03
2022-12-01T18:39:17.038Z,70.18
2022-12-01T18:41:22.714Z,69.88
2022-12-01T18:43:28.272Z,64.00
2022-12-01T18:45:33.338Z,64.40
2022-12-01T18:47:41.372Z,69.72
2022-12-01T18:51:51.214Z,66.35
2022-12-01T18:53:57.454Z,62.00
2022-12-01T18:56:05.929Z,67.38
2022-12-01T18:58:11.083Z,69.22
2022-12-01T19:00:18.030Z,61.28
2022-12-01T19:02:23.436Z,62.13
2022-12-01T19:04:31.143Z,60.00
2022-12-01T19:06:37.522Z,60.03
2022-12-01T19:08:42.716Z,55.13
2022-12-01T19:10:47.914Z,55.42
2022-12-01T19:12:52.980Z,57.38
2022-12-01T19:14:58.256Z,54.55
2022-12-01T19:17:04.062Z,58.88
2022-12-01T19:19:09.722Z,57.95
2022-12-01T19:21:21.256Z,51.45
2022-12-01T19:23:27.637Z,51.70
2022-12-01T19:25:32.624Z,54.58
2022-12-01T19:27:37.909Z,60.38
2022-12-01T19:29:43.558Z,57.90
2022-12-01T19:31:48.833Z,60.22
2022-12-01T19:33:55.385Z,53.92
2022-12-01T19:36:08.407Z,54.97
2022-12-01T19:38:16.177Z,53.55
2022-12-01T19:40:21.736Z,52.65
2022-12-01T19:42:26.912Z,54.67
2022-12-01T19:44:31.944Z,52.97
2022-12-01T19:46:37.076Z,52.65
2022-12-01T19:48:44.348Z,50.63
2022-12-01T19:50:49.675Z,49.25
2022-12-01T19:52:54.692Z,55.90
2022-12-01T19:55:02.580Z,54.10
2022-12-01T19:57:07.922Z,57.72
2022-12-01T19:59:14.947Z,61.17
2022-12-01T20:01:21.644Z,60.30
2022-12-01T20:03:26.623Z,58.17
2022-12-01T20:05:31.701Z,60.03
2022-12-01T20:07:37.398Z,55.03
2022-12-01T20:09:48.415Z,62.05
2022-12-01T20:11:57.940Z,53.45
2022-12-01T20:14:04.221Z,55.78
2022-12-01T20:16:13.057Z,57.53
2022-12-01T20:18:18.084Z,58.17
2022-12-01T20:20:23.074Z,52.63
2022-12-01T20:22:28.080Z,52.92
2022-12-01T20:24:33.934Z,57.25
2022-12-01T20:26:43.302Z,53.92
2022-12-01T20:28:54.211Z,56.38
2022-12-01T20:30:59.506Z,60.10
2022-12-01T20:33:04.536Z,61.60
2022-12-01T20:35:10.533Z,54.35
2022-12-01T20:37:15.936Z,57.33
2022-12-01T20:39:21.322Z,57.35
2022-12-01T20:41:26.515Z,60.60
2022-12-01T20:43:31.523Z,61.72
2022-12-01T20:45:39.261Z,59.33
2022-12-01T20:47:44.677Z,51.85
2022-12-01T20:49:52.970Z,56.47
2022-12-01T20:52:00.787Z,61.17
2022-12-01T20:58:40.251Z,56.55
2022-12-01T21:00:47.986Z,56.05
2022-12-01T21:02:53.215Z,75.53
2022-12-01T21:04:59.385Z,55.75
2022-12-01T21:07:04.724Z,56.58
2022-12-01T21:09:09.779Z,59.20
2022-12-01T21:11:41.426Z,72.35
2022-12-01T21:13:43.945Z,52.45
2022-12-01T21:16:03.120Z,55.08
2022-12-01T21:18:17.633Z,56.97
2022-12-01T21:20:30.344Z,53.33
2022-12-01T21:22:36.969Z,49.95
2022-12-01T21:24:49.099Z,51.83
2022-12-01T21:27:01.956Z,58.97
2022-12-01T21:29:23.961Z,58.42
2022-12-01T21:31:31.582Z,63.75
2022-12-01T21:33:39.174Z,58.72
2022-12-01T21:35:44.234Z,85.35
2022-12-01T21:37:50.583Z,70.22
2022-12-01T21:39:59.212Z,57.78
2022-12-01T21:42:19.788Z,83.80
2022-12-01T21:44:29.410Z,55.42
2022-12-01T21:46:40.110Z,55.83
2022-12-01T21:48:46.399Z,63.50
2022-12-01T21:50:54.238Z,78.00
2022-12-01T21:55:35.798Z,54.08
2022-12-01T21:57:45.000Z,56.13
2022-12-01T21:59:51.491Z,55.40
2022-12-01T22:02:00.504Z,57.92
2022-12-01T22:04:15.850Z,58.97
2022-12-01T22:06:30.209Z,54.88
2022-12-01T22:08:39.098Z,61.53
2022-12-01T22:11:02.130Z,62.28
2022-12-01T22:13:12.308Z,57.13
2022-12-01T22:15:41.181Z,51.95
2022-12-01T22:17:48.770Z,53.83
2022-12-01T22:19:59.705Z,56.35
2022-12-01T22:22:23.541Z,55.88
2022-12-01T22:24:31.948Z,60.40
2022-12-01T22:26:43.513Z,56.70
2022-12-01T22:30:54.675Z,56.67
2022-12-01T22:33:03.735Z,57.72
2022-12-01T22:35:41.987Z,62.97
2022-12-01T22:37:49.278Z,58.85
2022-12-01T22:39:58.284Z,53.63
2022-12-01T22:42:10.439Z,61.38
2022-12-01T22:44:16.049Z,62.33
2022-12-01T22:46:41.416Z,66.03
2022-12-01T22:48:52.250Z,67.28
2022-12-01T22:50:57.970Z,65.03
2022-12-01T22:53:15.374Z,65.68
2022-12-01T22:55:23.197Z,71.82
2022-12-01T22:57:35.263Z,60.90
2022-12-01T22:59:44.008Z,65.97
2022-12-01T23:01:56.782Z,60.17
2022-12-01T23:04:23.664Z,64.63
2022-12-01T23:06:58.826Z,65.53
2022-12-01T23:09:04.507Z,62.53
2022-12-01T23:11:14.240Z,66.95
2022-12-01T23:13:24.069Z,69.32
2022-12-01T23:15:35.542Z,62.95
2022-12-01T23:17:41.451Z,65.32
2022-12-01T23:19:49.826Z,64.95
2022-12-01T23:21:56.095Z,67.68
2022-12-01T23:24:01.127Z,67.22
2022-12-01T23:26:09.888Z,65.43
2022-12-01T23:28:16.238Z,68.80
2022-12-01T23:30:23.885Z,65.82
2022-12-01T23:32:29.359Z,58.05
2022-12-01T23:34:34.386Z,66.75
2022-12-01T23:36:42.502Z,62.15
2022-12-01T23:38:49.862Z,59.35
2022-12-01T23:40:58.723Z,57.50
2022-12-01T23:43:15.150Z,57.92
2022-12-01T23:45:25.332Z,62.60
2022-12-01T23:47:32.928Z,59.78
2022-12-01T23:49:38.736Z,56.27
2022-12-01T23:51:50.961Z,61.85
2022-12-01T23:53:58.321Z,62.63
2022-12-01T23:56:08.964Z,59.88
2022-12-01T23:58:17.960Z,55.70
